Time;durP1;ratioP1;P1;durP2;ratioP2;P2;SDS_P1;SDS_P2;PMS_P1;PMS_P2;Temp;Humidity;BMP_temperature;BMP_pressure;BME280_temperature;BME280_humidity;BME280_pressure;Samples;Min_cycle;Max_cycle;Signal;HPM_P1;HPM_P2
2023/06/13 05:50:28;;;;;;;9.65;6.72;;;;;;;;;;10517966;28;20448;-87
2023/06/13 05:55:37;;;;;;;9.18;7.15;;;;;;;;;;10495354;28;20077;-87
2023/06/13 06:00:45;;;;;;;8.00;6.78;;;;;;;;;;10442936;22;20055;-85
2023/06/13 06:05:47;;;;;;;7.20;5.80;;;;;;;;;;10343887;28;20066;-86
2023/06/13 06:10:53;;;;;;;7.70;6.10;;;;;;;;;;10343432;28;20033;-86
2023/06/13 06:15:54;;;;;;;7.57;5.35;;;;;;;;;;10330127;28;20054;-86
2023/06/13 06:20:56;;;;;;;10.40;5.72;;;;;;;;;;10323197;28;20027;-85
2023/06/13 06:25:57;;;;;;;6.35;4.70;;;;;;;;;;10335587;28;20035;-85
2023/06/13 06:31:11;;;;;;;9.13;6.10;;;;;;;;;;10351621;28;20027;-84
2023/06/13 06:36:12;;;;;;;7.22;5.13;;;;;;;;;;10370870;28;20050;-86
2023/06/13 06:41:14;;;;;;;5.95;5.07;;;;;;;;;;10342596;28;20030;-86
2023/06/13 06:46:20;;;;;;;7.40;6.18;;;;;;;;;;10337221;28;20042;-85
2023/06/13 06:51:44;;;;;;;11.25;6.38;;;;;;;;;;10342713;28;20034;-85
2023/06/13 06:56:45;;;;;;;8.80;5.68;;;;;;;;;;10338767;28;20485;-86
2023/06/13 07:01:48;;;;;;;8.65;5.43;;;;;;;;;;10311294;28;20039;-86
2023/06/13 07:06:49;;;;;;;7.45;4.43;;;;;;;;;;10310265;28;20061;-83
2023/06/13 07:11:53;;;;;;;5.47;4.63;;;;;;;;;;10312083;28;20027;-83
2023/06/13 07:16:54;;;;;;;6.43;5.40;;;;;;;;;;10310779;28;20043;-83
2023/06/13 07:21:55;;;;;;;6.45;5.28;;;;;;;;;;10310048;28;20060;-83
2023/06/13 07:26:57;;;;;;;6.55;4.85;;;;;;;;;;10310795;28;20033;-83
2023/06/13 07:31:59;;;;;;;5.65;5.00;;;;;;;;;;10311985;28;20034;-84
2023/06/13 07:37:02;;;;;;;8.05;5.13;;;;;;;;;;10315060;28;20058;-84
2023/06/13 07:42:05;;;;;;;9.38;6.10;;;;;;;;;;10311428;28;20384;-83
2023/06/13 07:47:08;;;;;;;7.32;5.03;;;;;;;;;;10310617;28;20085;-83
2023/06/13 07:52:39;;;;;;;8.38;5.50;;;;;;;;;;10312299;28;20061;-83
2023/06/13 07:58:01;;;;;;;5.63;4.40;;;;;;;;;;10312519;28;20038;-83
2023/06/13 08:03:03;;;;;;;8.45;5.63;;;;;;;;;;10313849;28;20381;-84
2023/06/13 08:08:04;;;;;;;7.10;5.20;;;;;;;;;;10312310;28;20041;-84
2023/06/13 08:13:08;;;;;;;7.65;5.22;;;;;;;;;;10310113;28;20050;-85
2023/06/13 08:18:09;;;;;;;6.72;5.07;;;;;;;;;;10307036;28;20031;-84
2023/06/13 08:23:12;;;;;;;5.57;5.05;;;;;;;;;;10307756;28;20458;-84
2023/06/13 08:28:20;;;;;;;7.25;4.72;;;;;;;;;;10306661;28;20027;-85
2023/06/13 08:33:21;;;;;;;6.35;4.75;;;;;;;;;;10306063;28;20022;-84
2023/06/13 08:38:29;;;;;;;6.00;4.55;;;;;;;;;;10306030;28;20023;-85
2023/06/13 08:43:30;;;;;;;7.10;5.38;;;;;;;;;;10304244;28;20465;-84
2023/06/13 08:48:32;;;;;;;5.00;4.50;;;;;;;;;;10302516;28;20022;-84
2023/06/13 08:53:35;;;;;;;5.78;5.00;;;;;;;;;;10304420;28;20077;-83
2023/06/13 08:58:39;;;;;;;5.20;4.10;;;;;;;;;;10303803;28;20043;-84
2023/06/13 09:03:40;;;;;;;7.65;6.38;;;;;;;;;;10302788;28;20094;-84
2023/06/13 09:08:42;;;;;;;5.75;4.53;;;;;;;;;;10307354;28;20041;-83
2023/06/13 09:13:44;;;;;;;7.38;5.35;;;;;;;;;;10308478;28;20027;-84
2023/06/13 09:18:45;;;;;;;8.35;4.68;;;;;;;;;;10309258;28;20022;-84
2023/06/13 09:23:48;;;;;;;9.00;4.78;;;;;;;;;;10316632;28;20062;-84
2023/06/13 09:28:49;;;;;;;10.13;5.15;;;;;;;;;;10312076;28;20086;-84
2023/06/13 09:33:50;;;;;;;6.00;4.80;;;;;;;;;;10311318;28;20037;-84
2023/06/13 09:38:53;;;;;;;7.03;4.50;;;;;;;;;;10313024;28;20377;-84
2023/06/13 09:43:55;;;;;;;9.02;5.50;;;;;;;;;;10315225;28;20027;-84
2023/06/13 09:48:56;;;;;;;7.47;4.95;;;;;;;;;;10309259;28;20058;-84
2023/06/13 09:53:59;;;;;;;5.80;4.70;;;;;;;;;;10308969;28;20137;-83
2023/06/13 09:59:00;;;;;;;5.45;4.10;;;;;;;;;;10309253;28;20160;-84
2023/06/13 10:04:02;;;;;;;5.03;4.50;;;;;;;;;;10339696;28;20022;-84
2023/06/13 10:09:03;;;;;;;7.15;4.65;;;;;;;;;;10315943;28;20386;-84
2023/06/13 10:14:06;;;;;;;6.20;4.70;;;;;;;;;;10292102;28;20027;-84
2023/06/13 10:19:09;;;;;;;5.25;4.28;;;;;;;;;;10305939;28;20063;-83
2023/06/13 10:24:11;;;;;;;5.80;4.82;;;;;;;;;;10316323;28;20026;-82
2023/06/13 10:29:21;;;;;;;5.15;4.40;;;;;;;;;;10314946;28;20074;-83
2023/06/13 10:34:34;;;;;;;6.40;4.38;;;;;;;;;;10318486;28;20030;-82
2023/06/13 10:39:39;;;;;;;4.88;4.38;;;;;;;;;;10324433;28;20023;-83
2023/06/13 10:44:46;;;;;;;8.32;5.60;;;;;;;;;;10324225;28;20031;-82
2023/06/13 10:49:49;;;;;;;5.22;4.18;;;;;;;;;;10327456;28;20094;-83
2023/06/13 10:54:54;;;;;;;9.38;4.97;;;;;;;;;;10324135;28;20073;-82
2023/06/13 10:59:55;;;;;;;6.22;4.55;;;;;;;;;;10323470;28;20062;-83
2023/06/13 11:05:01;;;;;;;6.22;5.63;;;;;;;;;;10326702;28;20030;-82
2023/06/13 11:10:04;;;;;;;6.88;4.95;;;;;;;;;;10326258;28;20023;-82
2023/06/13 11:15:05;;;;;;;9.25;6.00;;;;;;;;;;10327605;28;20045;-82
2023/06/13 11:20:07;;;;;;;7.55;4.80;;;;;;;;;;10328230;28;20178;-82
2023/06/13 11:25:08;;;;;;;4.85;4.35;;;;;;;;;;10326228;28;20465;-82
2023/06/13 11:30:09;;;;;;;9.35;5.80;;;;;;;;;;10326234;28;20030;-83
2023/06/13 11:35:11;;;;;;;7.00;4.53;;;;;;;;;;10324874;28;20093;-82
2023/06/13 11:40:15;;;;;;;5.45;4.53;;;;;;;;;;10327154;28;20034;-82
2023/06/13 11:45:16;;;;;;;6.53;4.65;;;;;;;;;;10321679;28;20743;-83
2023/06/13 11:50:24;;;;;;;5.00;4.38;;;;;;;;;;10324979;28;20062;-82
2023/06/13 11:55:25;;;;;;;8.55;4.72;;;;;;;;;;10324057;28;20031;-82
2023/06/13 12:00:27;;;;;;;8.98;4.47;;;;;;;;;;10358743;23;20030;-86
2023/06/13 12:11:16;;;;;;;6.20;5.28;;;;;;;;;;10345814;28;20034;-85
2023/06/13 12:16:17;;;;;;;5.78;4.65;;;;;;;;;;10350251;28;20062;-85
2023/06/13 12:21:19;;;;;;;5.80;4.40;;;;;;;;;;10353387;28;20488;-85
2023/06/13 12:26:20;;;;;;;5.80;4.40;;;;;;;;;;10342410;28;20122;-85
2023/06/13 12:31:59;;;;;;;6.22;4.80;;;;;;;;;;10331028;28;20117;-85
2023/06/13 12:37:12;;;;;;;5.10;4.60;;;;;;;;;;10348467;28;20034;-85
2023/06/13 12:42:36;;;;;;;8.23;4.82;;;;;;;;;;10344769;28;20034;-86
2023/06/13 12:47:37;;;;;;;6.15;4.38;;;;;;;;;;10344345;28;20517;-84
2023/06/13 12:52:38;;;;;;;5.78;4.30;;;;;;;;;;10341195;28;20066;-84
2023/06/13 12:57:40;;;;;;;8.50;4.78;;;;;;;;;;10340953;28;20034;-85
2023/06/13 13:02:43;;;;;;;5.25;4.20;;;;;;;;;;10343030;28;20034;-86
2023/06/13 13:07:46;;;;;;;7.15;4.80;;;;;;;;;;10342266;28;20176;-86
2023/06/13 13:12:48;;;;;;;9.23;4.93;;;;;;;;;;10338808;28;20034;-86
2023/06/13 13:18:03;;;;;;;7.53;4.32;;;;;;;;;;10343847;28;20115;-85
2023/06/13 13:23:08;;;;;;;7.45;4.55;;;;;;;;;;10483626;28;20012;-86
2023/06/13 13:28:09;;;;;;;6.68;4.95;;;;;;;;;;10481078;28;20410;-85
2023/06/13 13:33:33;;;;;;;4.30;3.90;;;;;;;;;;10462168;28;20021;-85
2023/06/13 13:38:35;;;;;;;6.60;4.35;;;;;;;;;;10471967;28;20040;-85
2023/06/13 13:43:36;;;;;;;5.70;4.70;;;;;;;;;;10504817;28;20100;-85
2023/06/13 13:48:38;;;;;;;4.93;4.20;;;;;;;;;;10464185;28;20052;-85
2023/06/13 13:53:40;;;;;;;5.00;4.50;;;;;;;;;;10460126;28;20112;-85
2023/06/13 13:58:41;;;;;;;8.00;7.00;;;;;;;;;;10462369;28;20031;-84
2023/06/13 14:03:42;;;;;;;4.95;4.38;;;;;;;;;;10467620;28;20029;-85
2023/06/13 14:08:43;;;;;;;5.18;4.32;;;;;;;;;;10469053;28;20032;-85
2023/06/13 14:13:44;;;;;;;4.95;4.30;;;;;;;;;;10474116;28;20092;-85
2023/06/13 14:18:46;;;;;;;4.85;4.35;;;;;;;;;;10473493;28;20078;-84
2023/06/13 14:23:47;;;;;;;8.57;4.65;;;;;;;;;;10469922;28;20390;-84
2023/06/13 14:28:48;;;;;;;5.80;4.88;;;;;;;;;;10471370;28;20056;-85
2023/06/13 14:33:49;;;;;;;7.22;4.30;;;;;;;;;;10475206;28;20025;-84
2023/06/13 14:38:51;;;;;;;7.05;5.18;;;;;;;;;;10469732;28;20047;-84
2023/06/13 14:43:52;;;;;;;4.63;4.22;;;;;;;;;;10477387;28;20063;-84
2023/06/13 14:48:53;;;;;;;6.65;4.20;;;;;;;;;;10477610;28;20475;-84
2023/06/13 14:53:54;;;;;;;8.13;4.50;;;;;;;;;;10479747;28;20033;-83
2023/06/13 14:58:55;;;;;;;4.72;4.32;;;;;;;;;;10474959;28;20239;-83
2023/06/13 15:04:00;;;;;;;5.75;4.68;;;;;;;;;;10473698;28;20079;-82
2023/06/13 15:09:01;;;;;;;5.03;4.13;;;;;;;;;;10479370;28;20025;-85
2023/06/13 15:14:03;;;;;;;7.65;4.95;;;;;;;;;;10477873;28;20025;-84
2023/06/13 15:19:04;;;;;;;6.78;4.40;;;;;;;;;;10477005;28;20059;-86
2023/06/13 15:24:05;;;;;;;7.20;4.28;;;;;;;;;;10477183;28;20021;-84
2023/06/13 15:29:07;;;;;;;7.32;4.75;;;;;;;;;;10482993;28;20029;-84
2023/06/13 15:34:08;;;;;;;7.30;4.30;;;;;;;;;;10475735;28;20048;-85
2023/06/13 15:39:10;;;;;;;6.85;5.28;;;;;;;;;;10474753;28;20047;-84
2023/06/13 15:44:11;;;;;;;5.57;4.60;;;;;;;;;;10474216;28;20188;-83
2023/06/13 15:49:12;;;;;;;8.18;4.57;;;;;;;;;;10471941;28;20461;-84
2023/06/13 15:54:13;;;;;;;6.25;4.75;;;;;;;;;;10469798;28;20128;-84
2023/06/13 15:59:14;;;;;;;7.95;5.10;;;;;;;;;;10476387;28;20566;-83
2023/06/13 16:04:15;;;;;;;5.97;4.38;;;;;;;;;;10473026;28;20115;-83
2023/06/13 16:09:16;;;;;;;6.80;4.60;;;;;;;;;;10472561;28;20099;-83
2023/06/13 16:14:17;;;;;;;13.88;9.13;;;;;;;;;;10473101;28;20032;-84
2023/06/13 16:19:21;;;;;;;6.38;5.65;;;;;;;;;;10477908;28;20033;-83
2023/06/13 16:24:22;;;;;;;6.55;4.75;;;;;;;;;;10476457;28;20028;-85
2023/06/13 16:29:35;;;;;;;6.30;5.50;;;;;;;;;;10471570;28;20029;-85
2023/06/13 16:34:49;;;;;;;7.18;5.30;;;;;;;;;;10467810;28;20084;-89
2023/06/13 16:40:04;;;;;;;7.25;4.88;;;;;;;;;;10467101;28;20082;-89
2023/06/13 16:45:11;;;;;;;7.85;6.30;;;;;;;;;;10491641;28;20036;-89
2023/06/13 16:50:21;;;;;;;7.43;6.65;;;;;;;;;;10461945;28;20461;-89
2023/06/13 16:55:23;;;;;;;6.07;5.43;;;;;;;;;;10462348;28;20032;-89
2023/06/13 17:00:24;;;;;;;7.45;6.43;;;;;;;;;;10460579;28;20043;-87
2023/06/13 17:05:25;;;;;;;7.38;4.80;;;;;;;;;;10487128;28;20017;-84
2023/06/13 17:10:26;;;;;;;6.70;5.40;;;;;;;;;;10488005;28;20037;-85
2023/06/13 17:15:27;;;;;;;5.60;5.00;;;;;;;;;;10481229;28;20029;-85
2023/06/13 17:20:28;;;;;;;6.03;5.43;;;;;;;;;;10479600;28;20032;-84
2023/06/13 17:25:29;;;;;;;5.35;4.63;;;;;;;;;;10476386;28;20044;-85
2023/06/13 17:30:30;;;;;;;6.85;5.70;;;;;;;;;;10475296;28;20043;-85
2023/06/13 17:35:32;;;;;;;6.05;5.43;;;;;;;;;;10475227;28;20060;-85
2023/06/13 17:40:33;;;;;;;6.25;5.30;;;;;;;;;;10475243;28;20474;-85
2023/06/13 17:45:34;;;;;;;5.78;5.18;;;;;;;;;;10477022;28;20064;-85
2023/06/13 17:50:35;;;;;;;8.65;6.25;;;;;;;;;;10475483;28;20032;-85
2023/06/13 17:55:36;;;;;;;5.43;4.93;;;;;;;;;;10474208;28;20021;-84
2023/06/13 18:00:37;;;;;;;7.07;5.57;;;;;;;;;;10474115;28;20033;-84
2023/06/13 18:05:39;;;;;;;6.43;5.30;;;;;;;;;;10475603;28;20025;-84
2023/06/13 18:10:40;;;;;;;8.05;4.88;;;;;;;;;;10474235;28;20045;-85
2023/06/13 18:15:41;;;;;;;6.28;5.68;;;;;;;;;;10475487;28;20029;-85
2023/06/13 18:20:42;;;;;;;7.03;5.13;;;;;;;;;;10473567;28;20033;-85
2023/06/13 18:25:43;;;;;;;6.32;5.22;;;;;;;;;;10474331;28;20469;-86
2023/06/13 18:30:44;;;;;;;7.93;5.65;;;;;;;;;;10479489;28;20043;-85
2023/06/13 18:35:45;;;;;;;5.50;4.20;;;;;;;;;;10474247;28;20025;-85
2023/06/13 18:40:46;;;;;;;5.45;4.47;;;;;;;;;;10473056;28;20494;-85
2023/06/13 18:45:47;;;;;;;6.72;4.80;;;;;;;;;;10473180;28;20036;-85
2023/06/13 18:50:49;;;;;;;4.82;4.30;;;;;;;;;;10471788;28;20029;-84
2023/06/13 18:55:50;;;;;;;4.75;4.22;;;;;;;;;;10474451;28;20029;-85
2023/06/13 19:00:53;;;;;;;5.65;4.80;;;;;;;;;;10475341;28;20033;-85
2023/06/13 19:05:54;;;;;;;6.88;4.65;;;;;;;;;;10476449;28;20506;-84
2023/06/13 19:10:56;;;;;;;7.30;5.15;;;;;;;;;;10478174;28;20033;-84
